createdAt,value
2022-09-21T00:00:10.092Z,5.8
2022-09-21T00:05:10.098Z,5.8
2022-09-21T00:10:10.103Z,5.8
2022-09-21T00:15:10.090Z,5.8
2022-09-21T00:20:10.117Z,5.8
2022-09-21T00:25:10.095Z,5.8
2022-09-21T00:30:10.110Z,5.7
2022-09-21T00:35:10.101Z,5.5
2022-09-21T00:40:10.106Z,5.4
2022-09-21T00:45:10.091Z,5.5
2022-09-21T00:50:10.104Z,5.3
2022-09-21T00:55:10.099Z,5.3
2022-09-21T01:00:10.112Z,5.4
2022-09-21T01:05:10.109Z,5.4
2022-09-21T01:10:10.111Z,5.6
2022-09-21T01:15:10.098Z,5.5
2022-09-21T01:20:10.116Z,5.4
2022-09-21T01:25:10.100Z,5.4
2022-09-21T01:30:10.095Z,5.3
2022-09-21T01:35:10.102Z,5.2
2022-09-21T01:40:10.147Z,5.4
2022-09-21T01:45:10.102Z,5.3
2022-09-21T01:50:10.116Z,5.1
2022-09-21T01:55:10.097Z,5.3
2022-09-21T02:00:10.107Z,5.1
2022-09-21T02:05:10.111Z,5
2022-09-21T02:10:10.102Z,5
2022-09-21T02:15:10.109Z,4.9
2022-09-21T02:20:10.092Z,4.9
2022-09-21T02:25:10.100Z,4.7
2022-09-21T02:30:10.107Z,4.6
2022-09-21T02:35:10.086Z,4.6
2022-09-21T02:40:10.153Z,4.6
2022-09-21T02:45:10.094Z,4.6
2022-09-21T02:50:10.100Z,4.6
2022-09-21T02:55:10.090Z,4.6
2022-09-21T03:00:10.099Z,4.5
2022-09-21T03:05:10.099Z,4.5
2022-09-21T03:10:10.097Z,4.5
2022-09-21T03:15:10.088Z,4.4
2022-09-21T03:20:10.099Z,4.4
2022-09-21T03:25:10.092Z,4.4
2022-09-21T03:30:10.095Z,4.4
2022-09-21T03:35:10.098Z,4.3
2022-09-21T03:40:10.177Z,4.2
2022-09-21T03:45:10.098Z,4
2022-09-21T03:50:10.411Z,4
2022-09-21T03:55:10.095Z,3.8
2022-09-21T04:00:10.105Z,3.9
2022-09-21T04:05:10.101Z,3.9
2022-09-21T04:10:10.113Z,4.1
2022-09-21T04:15:10.088Z,4.1
2022-09-21T04:20:10.107Z,4
2022-09-21T04:25:10.106Z,4
2022-09-21T04:30:10.095Z,3.9
2022-09-21T04:35:10.093Z,3.7
2022-09-21T04:40:10.164Z,3.7
2022-09-21T04:45:10.102Z,3.6
2022-09-21T04:50:10.116Z,3.7
2022-09-21T04:55:10.114Z,3.8
2022-09-21T05:00:10.105Z,3.8
2022-09-21T05:05:10.100Z,3.9
2022-09-21T05:10:10.096Z,4
2022-09-21T05:15:10.098Z,3.9
2022-09-21T05:20:10.102Z,4
2022-09-21T05:25:10.088Z,4
2022-09-21T05:30:10.096Z,4.1
2022-09-21T05:35:10.096Z,4.4
2022-09-21T05:40:10.139Z,4.7
2022-09-21T05:45:10.090Z,4.9
2022-09-21T05:50:10.112Z,5.4
2022-09-21T05:55:10.099Z,5.6
2022-09-21T06:00:10.111Z,6.1
2022-09-21T06:05:10.106Z,6.7
2022-09-21T06:10:10.096Z,7.1
2022-09-21T06:15:10.097Z,6.8
2022-09-21T06:20:10.115Z,6.7
2022-09-21T06:25:10.091Z,6.9
2022-09-21T06:30:10.096Z,7.2
2022-09-21T06:35:10.106Z,7.2
2022-09-21T06:40:10.164Z,7.4
2022-09-21T06:45:10.102Z,7.3
2022-09-21T06:50:10.111Z,7.5
2022-09-21T06:55:10.102Z,7.6
2022-09-21T07:00:10.106Z,7.4
2022-09-21T07:05:10.109Z,7
2022-09-21T07:10:13.484Z,6.7
2022-09-21T07:15:10.111Z,6.7
2022-09-21T07:20:10.101Z,6.8
2022-09-21T07:25:10.101Z,6.6
2022-09-21T07:30:10.098Z,6.6
2022-09-21T07:35:10.093Z,6.4
2022-09-21T07:40:10.156Z,6.6
2022-09-21T07:45:10.093Z,6.6
2022-09-21T07:50:10.114Z,6.7
2022-09-21T07:55:10.106Z,6.8
2022-09-21T08:00:10.096Z,6.9
2022-09-21T08:05:10.096Z,6.9
2022-09-21T08:10:10.103Z,7
2022-09-21T08:15:20.565Z,6.9
2022-09-21T08:20:10.105Z,7
2022-09-21T08:25:10.100Z,7.1
2022-09-21T08:30:10.105Z,7.2
2022-09-21T08:35:10.105Z,7.3
2022-09-21T08:40:10.133Z,7.5
2022-09-21T08:45:10.086Z,7.6
2022-09-21T08:50:10.098Z,7.8
2022-09-21T08:55:12.184Z,7.8
2022-09-21T09:00:10.121Z,8.1
2022-09-21T09:05:10.093Z,8.4
2022-09-21T09:10:10.106Z,8.4
2022-09-21T09:15:10.091Z,8.8
2022-09-21T09:20:10.110Z,9.1
2022-09-21T09:25:10.095Z,9.1
2022-09-21T09:30:10.105Z,9
2022-09-21T09:35:10.092Z,9.2
2022-09-21T09:40:10.155Z,10
2022-09-21T09:45:10.098Z,10.4
2022-09-21T09:50:10.107Z,10.5
2022-09-21T09:55:10.102Z,10.5
2022-09-21T10:00:10.106Z,10.3
2022-09-21T10:05:10.096Z,10.7
2022-09-21T10:10:10.103Z,11.1
2022-09-21T10:15:10.091Z,11.5
2022-09-21T10:20:10.104Z,12.1
2022-09-21T10:25:10.102Z,12.4
2022-09-21T10:30:10.102Z,12.5
2022-09-21T10:35:10.103Z,12.7
2022-09-21T10:40:10.135Z,12.7
2022-09-21T10:45:10.103Z,12.4
2022-09-21T10:50:10.097Z,13
2022-09-21T10:55:10.094Z,13.4
2022-09-21T11:00:10.110Z,13.9
2022-09-21T11:05:10.108Z,13
2022-09-21T11:10:10.116Z,13.2
2022-09-21T11:15:10.107Z,13.2
2022-09-21T11:20:10.102Z,13.9
2022-09-21T11:25:10.092Z,13.8
2022-09-21T11:30:10.136Z,13.7
2022-09-21T11:35:10.092Z,13.4
2022-09-21T11:40:10.146Z,13.8
2022-09-21T11:45:10.097Z,14.3
2022-09-21T11:55:10.091Z,13.7
2022-09-21T12:00:10.109Z,14.4
2022-09-21T12:05:10.096Z,14.8
2022-09-21T12:10:10.915Z,15.6
2022-09-21T12:15:10.126Z,15.8
2022-09-21T12:20:10.110Z,15.5
2022-09-21T12:25:10.091Z,15.8
2022-09-21T12:30:10.105Z,15.8
2022-09-21T12:35:10.105Z,15.9
2022-09-21T12:40:10.127Z,15.4
2022-09-21T12:45:10.095Z,15.2
2022-09-21T12:50:10.112Z,15.2
2022-09-21T12:55:10.103Z,15.2
2022-09-21T13:00:10.099Z,15.3
2022-09-21T13:05:10.092Z,15.8
2022-09-21T13:10:10.104Z,15.3
2022-09-21T13:15:10.099Z,15.6
2022-09-21T13:20:10.099Z,15.5
2022-09-21T13:25:10.094Z,15.4
2022-09-21T13:30:10.098Z,15.5
2022-09-21T13:35:10.119Z,15.7
2022-09-21T13:40:12.181Z,15.6
2022-09-21T13:45:10.092Z,16
2022-09-21T13:50:10.103Z,16.2
2022-09-21T13:55:10.102Z,16.6
2022-09-21T14:00:10.112Z,16.7
2022-09-21T14:05:10.106Z,15.7
2022-09-21T14:10:10.118Z,15.7
2022-09-21T14:15:10.098Z,15.4
2022-09-21T14:20:10.175Z,15.6
2022-09-21T14:25:10.100Z,16.1
2022-09-21T14:30:10.117Z,15.7
2022-09-21T14:35:10.105Z,16.4
2022-09-21T14:40:10.167Z,16.3
2022-09-21T14:45:10.098Z,16.3
2022-09-21T14:50:14.467Z,17.1
2022-09-21T14:55:10.108Z,17.1
2022-09-21T15:00:10.105Z,16.4
2022-09-21T15:05:10.095Z,16.4
2022-09-21T15:10:10.108Z,15.9
2022-09-21T15:15:10.094Z,16
2022-09-21T15:20:10.112Z,15.7
2022-09-21T15:25:10.099Z,15.3
2022-09-21T15:30:10.107Z,15.3
2022-09-21T15:35:10.088Z,15.4
2022-09-21T15:40:10.239Z,15.4
2022-09-21T15:45:10.102Z,15.6
2022-09-21T15:50:10.099Z,15.7
2022-09-21T15:55:10.095Z,15.5
2022-09-21T16:00:10.100Z,15.5
2022-09-21T16:05:10.110Z,15.5
2022-09-21T16:10:10.105Z,15.5
2022-09-21T16:15:10.105Z,15.8
2022-09-21T16:20:10.114Z,15.6
2022-09-21T16:25:10.099Z,15.8
2022-09-21T16:30:10.103Z,15.9
2022-09-21T16:35:10.097Z,16.1
2022-09-21T16:40:10.154Z,16.6
2022-09-21T16:45:10.098Z,15.7
2022-09-21T16:50:10.113Z,13.7
2022-09-21T16:55:10.096Z,12.9
2022-09-21T17:00:10.105Z,12.4
2022-09-21T17:05:10.110Z,11.9
2022-09-21T17:10:10.095Z,11.6
2022-09-21T17:15:10.098Z,11
2022-09-21T17:20:10.114Z,10.7
2022-09-21T17:25:10.098Z,10.4
2022-09-21T17:30:10.098Z,10.3
2022-09-21T17:35:10.117Z,9.9
2022-09-21T17:40:11.214Z,9.7
2022-09-21T17:45:10.098Z,9.5
2022-09-21T17:50:10.103Z,9.3
2022-09-21T17:55:10.107Z,9.1
2022-09-21T18:00:10.095Z,9
2022-09-21T18:05:10.097Z,8.8
2022-09-21T18:10:10.106Z,8.7
2022-09-21T18:15:10.108Z,8.6
2022-09-21T18:20:10.100Z,8.4
2022-09-21T18:25:10.107Z,8.2
2022-09-21T18:30:10.097Z,8.1
2022-09-21T18:35:10.092Z,8.1
2022-09-21T18:40:10.128Z,8
2022-09-21T18:45:10.090Z,7.9
2022-09-21T18:50:10.124Z,7.9
2022-09-21T18:55:10.106Z,7.9
2022-09-21T19:00:10.108Z,7.8
2022-09-21T19:05:10.100Z,7.6
2022-09-21T19:10:10.096Z,7.5
2022-09-21T19:15:12.241Z,7.4
2022-09-21T19:20:10.097Z,7.4
2022-09-21T19:25:10.206Z,7.4
2022-09-21T19:30:10.102Z,7.2
2022-09-21T19:35:10.092Z,7.1
2022-09-21T19:40:10.143Z,7.1
2022-09-21T19:45:10.095Z,7.1
2022-09-21T19:50:10.106Z,7.1
2022-09-21T19:55:10.096Z,7.3
2022-09-21T20:00:10.107Z,7.3
2022-09-21T20:05:10.102Z,7.2
2022-09-21T20:10:10.111Z,7.2
2022-09-21T20:15:10.100Z,7.3
2022-09-21T20:20:10.101Z,7.3
2022-09-21T20:25:10.089Z,7.3
2022-09-21T20:30:10.101Z,7.5
2022-09-21T20:35:10.105Z,7.4
2022-09-21T20:40:10.167Z,7.4
2022-09-21T20:45:10.092Z,7.4
2022-09-21T20:50:10.095Z,7.3
2022-09-21T20:55:10.091Z,7.3
2022-09-21T21:00:10.100Z,7.1
2022-09-21T21:05:10.099Z,7.1
2022-09-21T21:10:10.106Z,6.9
2022-09-21T21:15:10.104Z,6.7
2022-09-21T21:20:10.104Z,6.7
2022-09-21T21:25:10.098Z,6.7
2022-09-21T21:30:10.105Z,6.9
2022-09-21T21:35:10.099Z,6.9
2022-09-21T21:40:10.165Z,6.8
2022-09-21T21:45:10.098Z,6.8
2022-09-21T21:50:10.111Z,6.8
2022-09-21T21:55:10.111Z,6.8
2022-09-21T22:00:10.126Z,6.9
2022-09-21T22:05:10.092Z,6.9
2022-09-21T22:10:10.115Z,7.1
2022-09-21T22:15:10.094Z,6.9
2022-09-21T22:20:10.107Z,6.8
2022-09-21T22:25:10.414Z,6.6
2022-09-21T22:30:10.102Z,6.5
2022-09-21T22:35:10.097Z,6.5
2022-09-21T22:40:10.197Z,6.6
2022-09-21T22:45:10.095Z,6.7
2022-09-21T22:50:10.094Z,6.6
2022-09-21T22:55:10.091Z,6.7
2022-09-21T23:00:10.105Z,6.3
2022-09-21T23:05:10.099Z,6.3
2022-09-21T23:10:10.124Z,6.3
2022-09-21T23:15:10.100Z,6.3
2022-09-21T23:20:10.104Z,6.3
2022-09-21T23:25:10.102Z,6.3
2022-09-21T23:30:10.103Z,6.2
2022-09-21T23:35:10.098Z,6.2
2022-09-21T23:40:10.121Z,5.9
2022-09-21T23:45:10.094Z,5.9
2022-09-21T23:50:10.101Z,6
2022-09-21T23:55:10.092Z,5.9
